This is the latest recevied weather packets stored in our database for station/object IW8PDD-3. If no packets are shown the sender has not sent any weather packets the latest 10 day(s).
| Time | Temp. | Humidity | Pressure | Rain* | Wind** | Luminosity | Snow |
|---|---|---|---|---|---|---|---|
| 1777317786 | 18.89° C | 59% | 1017.6 hPa | - | - | - | - |
| 1777316583 | 18.89° C | 60% | 1017.5 hPa | - | - | - | - |
| 1777315379 | 18.89° C | 59% | 1017.3 hPa | - | - | - | - |
| 1777314176 | 18.89° C | 59% | 1017.3 hPa | - | - | - | - |
| 1777312972 | 18.89° C | 58% | 1017.1 hPa | - | - | - | - |
| 1777311769 | 19.44° C | 56% | 1017 hPa | - | - | - | - |
| 1777310566 | 20° C | 54% | 1017 hPa | - | - | - | - |
| 1777309362 | 20.56° C | 50% | 1016.9 hPa | - | - | - | - |
| 1777308265 | 22.22° C | 48% | 1016.9 hPa | - | - | - | - |
| 1777308158 | 22.22° C | 48% | 1016.9 hPa | - | - | - | - |
| 1777306955 | 22.22° C | 47% | 1017 hPa | - | - | - | - |
| 1777305752 | 25° C | 46% | 1017 hPa | - | - | - | - |
| 1777304548 | 25° C | 45% | 1017 hPa | - | - | - | - |
| 1777303345 | 26.67° C | 44% | 1016.9 hPa | - | - | - | - |
| 1777302141 | 28.33° C | 43% | 1016.8 hPa | - | - | - | - |
| 1777300938 | 28.89° C | 43% | 1016.8 hPa | - | - | - | - |
| 1777299734 | 27.22° C | 45% | 1017 hPa | - | - | - | - |
| 1777298531 | 27.78° C | 45% | 1017.2 hPa | - | - | - | - |
| 1777297327 | 26.11° C | 48% | 1017.4 hPa | - | - | - | - |
| 1777294921 | 24.44° C | 52% | 1017.7 hPa | - | - | - | - |
| 1777293717 | 23.33° C | 52% | 1017.8 hPa | - | - | - | - |
| 1777292513 | 23.89° C | 51% | 1017.8 hPa | - | - | - | - |
| 1777291310 | 23.89° C | 52% | 1017.8 hPa | - | - | - | - |
| 1777288903 | 22.22° C | 55% | 1018.2 hPa | - | - | - | - |
| 1777285293 | 20.56° C | 57% | 1018.5 hPa | - | - | - | - |
* Rain since midnight (hover to see other rain measurements)
** Current wind speed in m/s (hover to see current wind gust speed)